Agios Georgios I — SX9857 — position and weather

sailwx.info

Track history (hours):
 
Tides and Currents Weather Stations Pressure Air Temp Water Temp Dewpoint Dewpoint Depression Visibility Wind Speed Wind Dir Waves Ship Positions

Agios Georgios I

Last reported at 2017-Dec-16 18:30 UTC. Time now 2017-Dec-16 18:55 UTC.
Position N 37°47' E 023°31'.

Length 59 m; draft 5 m.

Type: Ship (hazmat cat B). MMSI: 239912000.

Date/timePositionNaut miles runAvg speedWind from/ knotsBaromVisibWave heightAir tempDewpointWater temp
2017-Dec-16 18:30N 37°47' E 023°31'0 0.0
2017-Dec-16 18:00N 37°47' E 023°31'0 0.0
2017-Dec-16 17:30N 37°47' E 023°31'0 0.0
2017-Dec-16 17:00N 37°47' E 023°31'0 0.0
2017-Dec-16 16:30N 37°47' E 023°31'0 0.0
2017-Dec-16 16:00N 37°47' E 023°31'1 1.1
2017-Dec-16 15:30N 37°47' E 023°32'4 7.4
2017-Dec-16 15:00N 37°50' E 023°35'4 7.0
2017-Dec-16 14:30N 37°50' E 023°31'4 8.4
2017-Dec-16 14:00N 37°51' E 023°26'4 8.6
2017-Dec-16 13:30N 37°52' E 023°20'4 8.9
2017-Dec-16 13:00N 37°53' E 023°15'4 8.7
2017-Dec-16 12:30N 37°54' E 023°10'4 7.1
2017-Dec-16 12:00N 37°55' E 023°05'0 0.0
2017-Dec-16 11:30N 37°55' E 023°05'0 0.0
2017-Dec-16 11:00N 37°55' E 023°05'0 0.0
2017-Dec-16 10:30N 37°55' E 023°05'0 0.0
2017-Dec-16 10:00N 37°55' E 023°05'0 0.0
2017-Dec-16 09:30N 37°55' E 023°05'0 0.0
2017-Dec-16 09:00N 37°55' E 023°05'0 0.0
2017-Dec-16 08:30N 37°55' E 023°05'0 0.0
2017-Dec-16 08:00N 37°55' E 023°05'0 0.0
2017-Dec-16 07:30N 37°55' E 023°05'0 0.0
2017-Dec-16 07:00N 37°55' E 023°05'0 0.0
2017-Dec-16 06:30N 37°55' E 023°05'0 0.0
2017-Dec-16 06:00N 37°55' E 023°05'0 0.0
2017-Dec-16 05:30N 37°55' E 023°05'0 0.0
2017-Dec-16 05:00N 37°55' E 023°05'0 0.0
2017-Dec-16 04:30N 37°55' E 023°05'0 0.0
2017-Dec-16 04:00N 37°55' E 023°05'0 0.0
2017-Dec-16 03:30N 37°55' E 023°05'0 0.0
2017-Dec-16 03:00N 37°55' E 023°05'0 0.0
2017-Dec-16 02:30N 37°55' E 023°05'0 0.0
2017-Dec-16 02:00N 37°55' E 023°05'0 0.0
2017-Dec-16 01:30N 37°55' E 023°05'0 0.0
2017-Dec-16 01:00N 37°55' E 023°05'0 0.0
2017-Dec-16 00:30N 37°55' E 023°05'0 0.0
2017-Dec-16 00:00N 37°55' E 023°05'0 0.0
2017-Dec-15 23:30N 37°55' E 023°05'0 0.0
2017-Dec-15 23:00N 37°55' E 023°05'0 0.0
2017-Dec-15 22:30N 37°55' E 023°05'0 0.0
2017-Dec-15 22:00N 37°55' E 023°05'0 0.0
2017-Dec-15 21:30N 37°55' E 023°05'0 0.0
2017-Dec-15 21:00N 37°55' E 023°05'2 3.7
2017-Dec-15 20:30N 37°54' E 023°07'5 9.1
2017-Dec-15 20:00N 37°54' E 023°13'4 8.8
2017-Dec-15 19:30N 37°53' E 023°19'5 9.1
2017-Dec-15 19:01N 37°52' E 023°24'5 9.0
2017-Dec-15 18:30N 37°50' E 023°30'4 8.1
2017-Dec-15 18:00N 37°53' E 023°34'5 9.1
2017-Dec-15 17:30N 37°57' E 023°35'0 0.2
2017-Dec-15 17:00N 37°57' E 023°35'0 0.0
2017-Dec-15 16:30N 37°57' E 023°35'0 0.0
2017-Dec-15 16:00N 37°57' E 023°35'0 0.0
2017-Dec-15 15:30N 37°57' E 023°35'0 0.0
2017-Dec-15 15:00N 37°57' E 023°35'0 0.0
2017-Dec-15 14:30N 37°57' E 023°35'0 0.0
2017-Dec-15 14:00N 37°57' E 023°35'0 0.0
2017-Dec-15 13:30N 37°57' E 023°35'0 0.0
2017-Dec-15 13:00N 37°57' E 023°35'0 0.0
2017-Dec-15 12:30N 37°57' E 023°35'0 0.0
2017-Dec-15 12:00N 37°57' E 023°35'0 0.0
2017-Dec-15 11:30N 37°57' E 023°35'0 0.0
2017-Dec-15 11:00N 37°57' E 023°35'0 0.0
2017-Dec-15 10:30N 37°57' E 023°35'0 0.0
2017-Dec-15 10:00N 37°57' E 023°35'0 0.0
2017-Dec-15 09:30N 37°57' E 023°35'0 0.0
2017-Dec-15 09:01N 37°57' E 023°35'2 3.1
2017-Dec-15 08:30N 37°56' E 023°35'1 3.0
2017-Dec-15 08:01N 37°54' E 023°34'0 0.3
2017-Dec-15 07:31N 37°54' E 023°34'0 0.2
2017-Dec-15 07:01N 37°54' E 023°34'0 0.1
2017-Dec-15 06:31N 37°54' E 023°34'1 2.1
2017-Dec-15 06:01N 37°53' E 023°34'3 5.1
2017-Dec-15 05:31N 37°51' E 023°36'3 7.0
2017-Dec-15 05:01N 37°49' E 023°40'4 8.4
2017-Dec-15 04:30N 37°45' E 023°42'4 8.4
2017-Dec-15 04:01N 37°42' E 023°45'17 8.4
2017-Dec-15 02:01N 37°34' E 024°03'9 8.7
2017-Dec-15 01:01N 37°31' E 024°14'4 8.5
2017-Dec-15 00:30N 37°30' E 024°19'30 5.0
2017-Dec-14 18:31N 37°26' E 024°56'0 0.0
2017-Dec-14 18:01N 37°26' E 024°56'0 0.0
2017-Dec-14 17:30N 37°26' E 024°56'0 0.0
2017-Dec-14 17:00N 37°26' E 024°56'0 0.0
2017-Dec-14 16:30N 37°26' E 024°56'0 0.0
2017-Dec-14 16:00N 37°26' E 024°56'0 0.0
2017-Dec-14 15:00N 37°26' E 024°56'0 0.0
2017-Dec-14 14:31N 37°26' E 024°56'0 0.0
2017-Dec-14 14:00N 37°26' E 024°56'0 0.0
2017-Dec-14 13:29N 37°26' E 024°56'0 0.0
2017-Dec-14 13:00N 37°26' E 024°56'0 0.0
2017-Dec-14 10:52N 37°26' E 024°56'0 0.0
2017-Dec-14 10:30N 37°26' E 024°56'0 0.0
2017-Dec-14 10:00N 37°26' E 024°56'0 0.0
2017-Dec-14 09:28N 37°26' E 024°56'0 0.6
2017-Dec-14 09:00N 37°26' E 024°57'0 0.0
2017-Dec-14 08:29N 37°26' E 024°57'0 0.0
2017-Dec-14 08:00N 37°26' E 024°57'0 0.3
2017-Dec-14 07:30N 37°26' E 024°57'5 9.0
2017-Dec-14 06:59N 37°28' E 025°02'5 9.4
2017-Dec-14 06:30N 37°29' E 025°07'5 9.7
2017-Dec-14 06:00N 37°31' E 025°13'5 9.2
2017-Dec-14 05:30N 37°34' E 025°18'5 9.4
2017-Dec-14 05:00N 37°38' E 025°21'5 9.5
2017-Dec-14 04:30N 37°42' E 025°23'5 9.5
2017-Dec-14 04:00N 37°47' E 025°26'5 9.5
2017-Dec-14 03:30N 37°51' E 025°28'5 9.3
2017-Dec-14 03:00N 37°55' E 025°30'5 9.1
2017-Dec-14 02:30N 37°60' E 025°32'5 9.2
2017-Dec-14 01:57N 38°04' E 025°34'6 9.0
2017-Dec-14 01:19N 38°10' E 025°37'3 8.8
2017-Dec-14 01:00N 38°12' E 025°38'4 8.8
2017-Dec-14 00:30N 38°17' E 025°40'4 8.9
2017-Dec-14 00:00N 38°21' E 025°42'4 8.8
2017-Dec-13 23:30N 38°25' E 025°44'4 8.9
2017-Dec-13 23:00N 38°29' E 025°46'  
2017-Dec-09 14:09N 38°02' E 026°26'2 8.3
2017-Dec-09 13:57N 38°00' E 026°27'5 8.1
2017-Dec-09 13:22N 37°57' E 026°31'4 8.6
2017-Dec-09 12:52N 37°54' E 026°35'20 2.0
2017-Dec-09 03:03N 37°37' E 026°22'1 7.8
2017-Dec-09 02:56N 37°37' E 026°21'4 8.4
2017-Dec-09 02:30N 37°35' E 026°17'4 8.1
2017-Dec-09 02:00N 37°32' E 026°13'4 7.9
2017-Dec-09 01:30N 37°31' E 026°08'4 7.9
2017-Dec-09 01:00N 37°28' E 026°04'4 7.5
2017-Dec-09 00:30N 37°26' E 026°00'4 7.5
2017-Dec-09 00:00N 37°24' E 025°56'3 6.9
2017-Dec-08 23:30N 37°23' E 025°52'4 7.3
2017-Dec-08 23:00N 37°21' E 025°48'4 7.3
2017-Dec-08 22:30N 37°19' E 025°44'8 7.6
2017-Dec-08 21:24N 37°15' E 025°35'4 7.9
2017-Dec-08 20:52N 37°13' E 025°31'3 8.2
2017-Dec-08 20:30N 37°11' E 025°28'5 9.5
2017-Dec-08 20:00N 37°08' E 025°23'2 3.5
2017-Dec-08 19:30N 37°06' E 025°22'0 0.0
2017-Dec-08 19:00N 37°06' E 025°22'0 0.0
2017-Dec-08 18:30N 37°06' E 025°22'0 0.0
2017-Dec-08 18:00N 37°06' E 025°22'0 0.0
2017-Dec-08 17:30N 37°06' E 025°22'0 0.0
2017-Dec-08 17:00N 37°06' E 025°22'0 0.0
2017-Dec-08 16:30N 37°06' E 025°22'0 0.8
2017-Dec-08 16:00N 37°06' E 025°22'0 0.6
2017-Dec-08 15:30N 37°06' E 025°22'0 0.1
2017-Dec-08 15:00N 37°06' E 025°22'0 0.0
2017-Dec-08 14:30N 37°06' E 025°22'0 0.0
2017-Dec-08 14:00N 37°06' E 025°22'0 0.0
2017-Dec-08 13:30N 37°06' E 025°22'0 0.0
2017-Dec-08 13:00N 37°06' E 025°22'0 0.0
2017-Dec-08 12:30N 37°06' E 025°22'0 0.0
2017-Dec-08 12:00N 37°06' E 025°22'1 2.6
2017-Dec-08 11:30N 37°07' E 025°21'4 8.9
2017-Dec-08 11:00N 37°10' E 025°17'5 9.4
2017-Dec-08 10:30N 37°09' E 025°11'5 9.0
2017-Dec-08 10:00N 37°05' E 025°08'1 0.0
2017-Dec-07 14:54N 37°05' E 025°08'3 8.8
2017-Dec-07 14:30N 37°08' E 025°06'5 9.9
2017-Dec-07 14:00N 37°13' E 025°04'5 9.7
2017-Dec-07 13:30N 37°17' E 025°02'5 9.4
2017-Dec-07 13:00N 37°22' E 024°60'5 9.5
2017-Dec-07 12:30N 37°26' E 024°57'1 1.7
2017-Dec-07 12:00N 37°26' E 024°56'0 0.0
2017-Dec-07 11:30N 37°26' E 024°56'0 0.0
2017-Dec-07 11:00N 37°26' E 024°56'0 0.0
2017-Dec-07 10:30N 37°26' E 024°56'0 0.0
2017-Dec-07 10:00N 37°26' E 024°56'0 0.0
2017-Dec-07 09:30N 37°26' E 024°56'0 0.0
2017-Dec-07 09:00N 37°26' E 024°56'0 0.0
2017-Dec-07 08:30N 37°26' E 024°56'0 0.0
2017-Dec-07 08:00N 37°26' E 024°56'0 0.0
2017-Dec-07 07:13N 37°26' E 024°56'0 0.0
2017-Dec-07 07:00N 37°26' E 024°56'0 0.0
2017-Dec-07 06:30N 37°26' E 024°56'0 0.0
2017-Dec-07 06:00N 37°26' E 024°56'0 0.0
2017-Dec-07 05:30N 37°26' E 024°56'0 0.0
2017-Dec-07 05:00N 37°26' E 024°56'0 0.0
2017-Dec-07 04:30N 37°26' E 024°56'0 0.0
2017-Dec-07 04:00N 37°26' E 024°56'0 0.0
2017-Dec-07 03:30N 37°26' E 024°56'0 0.0
2017-Dec-07 03:00N 37°26' E 024°56'0 0.0
2017-Dec-07 02:30N 37°26' E 024°56'0 0.0
2017-Dec-07 02:00N 37°26' E 024°56'0 0.0
2017-Dec-07 01:30N 37°26' E 024°56'0 0.0
2017-Dec-07 01:00N 37°26' E 024°56'0 0.0
2017-Dec-07 00:30N 37°26' E 024°56'0 0.0
2017-Dec-07 00:00N 37°26' E 024°56'0 0.0
2017-Dec-06 23:30N 37°26' E 024°56'0 0.0
2017-Dec-06 23:00N 37°26' E 024°56'0 0.0
2017-Dec-06 22:30N 37°26' E 024°56'0 0.0
2017-Dec-06 22:00N 37°26' E 024°56'0 0.0
2017-Dec-06 21:30N 37°26' E 024°56'0 0.0
2017-Dec-06 21:00N 37°26' E 024°56'  
Track history (hours):
 
Tides and Currents Weather Stations Pressure Air Temp Water Temp Dewpoint Dewpoint Depression Visibility Wind Speed Wind Dir Waves Ship Positions

Agios Georgios I

Last reported at 2017-Dec-16 18:30 UTC. Time now 2017-Dec-16 18:55 UTC.
Position N 37°47' E 023°31'.

Length 59 m; draft 5 m.

Type: Ship (hazmat cat B). MMSI: 239912000.

Date/timePositionNaut miles runAvg speedWind from/ knotsBaromVisibWave heightAir tempDewpointWater temp
2017-Dec-16 18:30N 37°47' E 023°31'0 0.0
2017-Dec-16 18:00N 37°47' E 023°31'0 0.0
2017-Dec-16 17:30N 37°47' E 023°31'0 0.0
2017-Dec-16 17:00N 37°47' E 023°31'0 0.0
2017-Dec-16 16:30N 37°47' E 023°31'0 0.0
2017-Dec-16 16:00N 37°47' E 023°31'1 1.1
2017-Dec-16 15:30N 37°47' E 023°32'4 7.4
2017-Dec-16 15:00N 37°50' E 023°35'4 7.0
2017-Dec-16 14:30N 37°50' E 023°31'4 8.4
2017-Dec-16 14:00N 37°51' E 023°26'4 8.6
2017-Dec-16 13:30N 37°52' E 023°20'4 8.9
2017-Dec-16 13:00N 37°53' E 023°15'4 8.7
2017-Dec-16 12:30N 37°54' E 023°10'4 7.1
2017-Dec-16 12:00N 37°55' E 023°05'0 0.0
2017-Dec-16 11:30N 37°55' E 023°05'0 0.0
2017-Dec-16 11:00N 37°55' E 023°05'0 0.0
2017-Dec-16 10:30N 37°55' E 023°05'0 0.0
2017-Dec-16 10:00N 37°55' E 023°05'0 0.0
2017-Dec-16 09:30N 37°55' E 023°05'0 0.0
2017-Dec-16 09:00N 37°55' E 023°05'0 0.0
2017-Dec-16 08:30N 37°55' E 023°05'0 0.0
2017-Dec-16 08:00N 37°55' E 023°05'0 0.0
2017-Dec-16 07:30N 37°55' E 023°05'0 0.0
2017-Dec-16 07:00N 37°55' E 023°05'0 0.0
2017-Dec-16 06:30N 37°55' E 023°05'0 0.0
2017-Dec-16 06:00N 37°55' E 023°05'0 0.0
2017-Dec-16 05:30N 37°55' E 023°05'0 0.0
2017-Dec-16 05:00N 37°55' E 023°05'0 0.0
2017-Dec-16 04:30N 37°55' E 023°05'0 0.0
2017-Dec-16 04:00N 37°55' E 023°05'0 0.0
2017-Dec-16 03:30N 37°55' E 023°05'0 0.0
2017-Dec-16 03:00N 37°55' E 023°05'0 0.0
2017-Dec-16 02:30N 37°55' E 023°05'0 0.0
2017-Dec-16 02:00N 37°55' E 023°05'0 0.0
2017-Dec-16 01:30N 37°55' E 023°05'0 0.0
2017-Dec-16 01:00N 37°55' E 023°05'0 0.0
2017-Dec-16 00:30N 37°55' E 023°05'0 0.0
2017-Dec-16 00:00N 37°55' E 023°05'0 0.0
2017-Dec-15 23:30N 37°55' E 023°05'0 0.0
2017-Dec-15 23:00N 37°55' E 023°05'0 0.0
2017-Dec-15 22:30N 37°55' E 023°05'0 0.0
2017-Dec-15 22:00N 37°55' E 023°05'0 0.0
2017-Dec-15 21:30N 37°55' E 023°05'0 0.0
2017-Dec-15 21:00N 37°55' E 023°05'2 3.7
2017-Dec-15 20:30N 37°54' E 023°07'5 9.1
2017-Dec-15 20:00N 37°54' E 023°13'4 8.8
2017-Dec-15 19:30N 37°53' E 023°19'5 9.1
2017-Dec-15 19:01N 37°52' E 023°24'5 9.0
2017-Dec-15 18:30N 37°50' E 023°30'4 8.1
2017-Dec-15 18:00N 37°53' E 023°34'5 9.1
2017-Dec-15 17:30N 37°57' E 023°35'0 0.2
2017-Dec-15 17:00N 37°57' E 023°35'0 0.0
2017-Dec-15 16:30N 37°57' E 023°35'0 0.0
2017-Dec-15 16:00N 37°57' E 023°35'0 0.0
2017-Dec-15 15:30N 37°57' E 023°35'0 0.0
2017-Dec-15 15:00N 37°57' E 023°35'0 0.0
2017-Dec-15 14:30N 37°57' E 023°35'0 0.0
2017-Dec-15 14:00N 37°57' E 023°35'0 0.0
2017-Dec-15 13:30N 37°57' E 023°35'0 0.0
2017-Dec-15 13:00N 37°57' E 023°35'0 0.0
2017-Dec-15 12:30N 37°57' E 023°35'0 0.0
2017-Dec-15 12:00N 37°57' E 023°35'0 0.0
2017-Dec-15 11:30N 37°57' E 023°35'0 0.0
2017-Dec-15 11:00N 37°57' E 023°35'0 0.0
2017-Dec-15 10:30N 37°57' E 023°35'0 0.0
2017-Dec-15 10:00N 37°57' E 023°35'0 0.0
2017-Dec-15 09:30N 37°57' E 023°35'0 0.0
2017-Dec-15 09:01N 37°57' E 023°35'2 3.1
2017-Dec-15 08:30N 37°56' E 023°35'1 3.0
2017-Dec-15 08:01N 37°54' E 023°34'0 0.3
2017-Dec-15 07:31N 37°54' E 023°34'0 0.2
2017-Dec-15 07:01N 37°54' E 023°34'0 0.1
2017-Dec-15 06:31N 37°54' E 023°34'1 2.1
2017-Dec-15 06:01N 37°53' E 023°34'3 5.1
2017-Dec-15 05:31N 37°51' E 023°36'3 7.0
2017-Dec-15 05:01N 37°49' E 023°40'4 8.4
2017-Dec-15 04:30N 37°45' E 023°42'4 8.4
2017-Dec-15 04:01N 37°42' E 023°45'17 8.4
2017-Dec-15 02:01N 37°34' E 024°03'9 8.7
2017-Dec-15 01:01N 37°31' E 024°14'4 8.5
2017-Dec-15 00:30N 37°30' E 024°19'30 5.0
2017-Dec-14 18:31N 37°26' E 024°56'0 0.0
2017-Dec-14 18:01N 37°26' E 024°56'0 0.0
2017-Dec-14 17:30N 37°26' E 024°56'0 0.0
2017-Dec-14 17:00N 37°26' E 024°56'0 0.0
2017-Dec-14 16:30N 37°26' E 024°56'0 0.0
2017-Dec-14 16:00N 37°26' E 024°56'0 0.0
2017-Dec-14 15:00N 37°26' E 024°56'0 0.0
2017-Dec-14 14:31N 37°26' E 024°56'0 0.0
2017-Dec-14 14:00N 37°26' E 024°56'0 0.0
2017-Dec-14 13:29N 37°26' E 024°56'0 0.0
2017-Dec-14 13:00N 37°26' E 024°56'0 0.0
2017-Dec-14 10:52N 37°26' E 024°56'0 0.0
2017-Dec-14 10:30N 37°26' E 024°56'0 0.0
2017-Dec-14 10:00N 37°26' E 024°56'0 0.0
2017-Dec-14 09:28N 37°26' E 024°56'0 0.6
2017-Dec-14 09:00N 37°26' E 024°57'0 0.0
2017-Dec-14 08:29N 37°26' E 024°57'0 0.0
2017-Dec-14 08:00N 37°26' E 024°57'0 0.3
2017-Dec-14 07:30N 37°26' E 024°57'5 9.0
2017-Dec-14 06:59N 37°28' E 025°02'5 9.4
2017-Dec-14 06:30N 37°29' E 025°07'5 9.7
2017-Dec-14 06:00N 37°31' E 025°13'5 9.2
2017-Dec-14 05:30N 37°34' E 025°18'5 9.4
2017-Dec-14 05:00N 37°38' E 025°21'5 9.5
2017-Dec-14 04:30N 37°42' E 025°23'5 9.5
2017-Dec-14 04:00N 37°47' E 025°26'5 9.5
2017-Dec-14 03:30N 37°51' E 025°28'5 9.3
2017-Dec-14 03:00N 37°55' E 025°30'5 9.1
2017-Dec-14 02:30N 37°60' E 025°32'5 9.2
2017-Dec-14 01:57N 38°04' E 025°34'6 9.0
2017-Dec-14 01:19N 38°10' E 025°37'3 8.8
2017-Dec-14 01:00N 38°12' E 025°38'4 8.8
2017-Dec-14 00:30N 38°17' E 025°40'4 8.9
2017-Dec-14 00:00N 38°21' E 025°42'4 8.8
2017-Dec-13 23:30N 38°25' E 025°44'4 8.9
2017-Dec-13 23:00N 38°29' E 025°46'  
2017-Dec-09 14:09N 38°02' E 026°26'2 8.3
2017-Dec-09 13:57N 38°00' E 026°27'5 8.1
2017-Dec-09 13:22N 37°57' E 026°31'4 8.6
2017-Dec-09 12:52N 37°54' E 026°35'20 2.0
2017-Dec-09 03:03N 37°37' E 026°22'1 7.8
2017-Dec-09 02:56N 37°37' E 026°21'4 8.4
2017-Dec-09 02:30N 37°35' E 026°17'4 8.1
2017-Dec-09 02:00N 37°32' E 026°13'4 7.9
2017-Dec-09 01:30N 37°31' E 026°08'4 7.9
2017-Dec-09 01:00N 37°28' E 026°04'4 7.5
2017-Dec-09 00:30N 37°26' E 026°00'4 7.5
2017-Dec-09 00:00N 37°24' E 025°56'3 6.9
2017-Dec-08 23:30N 37°23' E 025°52'4 7.3
2017-Dec-08 23:00N 37°21' E 025°48'4 7.3
2017-Dec-08 22:30N 37°19' E 025°44'8 7.6
2017-Dec-08 21:24N 37°15' E 025°35'4 7.9
2017-Dec-08 20:52N 37°13' E 025°31'3 8.2
2017-Dec-08 20:30N 37°11' E 025°28'5 9.5
2017-Dec-08 20:00N 37°08' E 025°23'2 3.5
2017-Dec-08 19:30N 37°06' E 025°22'0 0.0
2017-Dec-08 19:00N 37°06' E 025°22'0 0.0
2017-Dec-08 18:30N 37°06' E 025°22'0 0.0
2017-Dec-08 18:00N 37°06' E 025°22'0 0.0
2017-Dec-08 17:30N 37°06' E 025°22'0 0.0
2017-Dec-08 17:00N 37°06' E 025°22'0 0.0
2017-Dec-08 16:30N 37°06' E 025°22'0 0.8
2017-Dec-08 16:00N 37°06' E 025°22'0 0.6
2017-Dec-08 15:30N 37°06' E 025°22'0 0.1
2017-Dec-08 15:00N 37°06' E 025°22'0 0.0
2017-Dec-08 14:30N 37°06' E 025°22'0 0.0
2017-Dec-08 14:00N 37°06' E 025°22'0 0.0
2017-Dec-08 13:30N 37°06' E 025°22'0 0.0
2017-Dec-08 13:00N 37°06' E 025°22'0 0.0
2017-Dec-08 12:30N 37°06' E 025°22'0 0.0
2017-Dec-08 12:00N 37°06' E 025°22'1 2.6
2017-Dec-08 11:30N 37°07' E 025°21'4 8.9
2017-Dec-08 11:00N 37°10' E 025°17'5 9.4
2017-Dec-08 10:30N 37°09' E 025°11'5 9.0
2017-Dec-08 10:00N 37°05' E 025°08'1 0.0
2017-Dec-07 14:54N 37°05' E 025°08'3 8.8
2017-Dec-07 14:30N 37°08' E 025°06'5 9.9
2017-Dec-07 14:00N 37°13' E 025°04'5 9.7
2017-Dec-07 13:30N 37°17' E 025°02'5 9.4
2017-Dec-07 13:00N 37°22' E 024°60'5 9.5
2017-Dec-07 12:30N 37°26' E 024°57'1 1.7
2017-Dec-07 12:00N 37°26' E 024°56'0 0.0
2017-Dec-07 11:30N 37°26' E 024°56'0 0.0
2017-Dec-07 11:00N 37°26' E 024°56'0 0.0
2017-Dec-07 10:30N 37°26' E 024°56'0 0.0
2017-Dec-07 10:00N 37°26' E 024°56'0 0.0
2017-Dec-07 09:30N 37°26' E 024°56'0 0.0
2017-Dec-07 09:00N 37°26' E 024°56'0 0.0
2017-Dec-07 08:30N 37°26' E 024°56'0 0.0
2017-Dec-07 08:00N 37°26' E 024°56'0 0.0
2017-Dec-07 07:13N 37°26' E 024°56'0 0.0
2017-Dec-07 07:00N 37°26' E 024°56'0 0.0
2017-Dec-07 06:30N 37°26' E 024°56'0 0.0
2017-Dec-07 06:00N 37°26' E 024°56'0 0.0
2017-Dec-07 05:30N 37°26' E 024°56'0 0.0
2017-Dec-07 05:00N 37°26' E 024°56'0 0.0
2017-Dec-07 04:30N 37°26' E 024°56'0 0.0
2017-Dec-07 04:00N 37°26' E 024°56'0 0.0
2017-Dec-07 03:30N 37°26' E 024°56'0 0.0
2017-Dec-07 03:00N 37°26' E 024°56'0 0.0
2017-Dec-07 02:30N 37°26' E 024°56'0 0.0
2017-Dec-07 02:00N 37°26' E 024°56'0 0.0
2017-Dec-07 01:30N 37°26' E 024°56'0 0.0
2017-Dec-07 01:00N 37°26' E 024°56'0 0.0
2017-Dec-07 00:30N 37°26' E 024°56'0 0.0
2017-Dec-07 00:00N 37°26' E 024°56'0 0.0
2017-Dec-06 23:30N 37°26' E 024°56'0 0.0
2017-Dec-06 23:00N 37°26' E 024°56'0 0.0
2017-Dec-06 22:30N 37°26' E 024°56'0 0.0
2017-Dec-06 22:00N 37°26' E 024°56'0 0.0
2017-Dec-06 21:30N 37°26' E 024°56'0 0.0
2017-Dec-06 21:00N 37°26' E 024°56'  

Dump ship's entire track history